sensor_id;sensor_type;location;lat;lon;timestamp;P1;durP1;ratioP1;P2;durP2;ratioP2
49460;SDS011;35355;49.198;-0.368;2022-12-05T00:01:49;63.25;;;17.35;;
49460;SDS011;35355;49.198;-0.368;2022-12-05T00:04:15;46.35;;;19.05;;
49460;SDS011;35355;49.198;-0.368;2022-12-05T00:06:42;39.17;;;14.43;;
49460;SDS011;35355;49.198;-0.368;2022-12-05T00:09:09;43.33;;;16.45;;
49460;SDS011;35355;49.198;-0.368;2022-12-05T00:11:36;46.25;;;17.77;;
49460;SDS011;35355;49.198;-0.368;2022-12-05T00:14:03;40.05;;;16.25;;
49460;SDS011;35355;49.198;-0.368;2022-12-05T00:16:30;44.00;;;16.58;;
49460;SDS011;35355;49.198;-0.368;2022-12-05T00:19:00;42.63;;;16.15;;
49460;SDS011;35355;49.198;-0.368;2022-12-05T00:21:27;41.88;;;17.33;;
49460;SDS011;35355;49.198;-0.368;2022-12-05T00:23:54;42.78;;;17.15;;
49460;SDS011;35355;49.198;-0.368;2022-12-05T00:26:21;40.38;;;15.55;;
49460;SDS011;35355;49.198;-0.368;2022-12-05T00:28:47;43.90;;;16.15;;
49460;SDS011;35355;49.198;-0.368;2022-12-05T00:31:14;42.72;;;16.75;;
49460;SDS011;35355;49.198;-0.368;2022-12-05T00:33:42;40.17;;;16.35;;
49460;SDS011;35355;49.198;-0.368;2022-12-05T00:36:12;43.33;;;14.95;;
49460;SDS011;35355;49.198;-0.368;2022-12-05T00:38:40;41.63;;;15.48;;
49460;SDS011;35355;49.198;-0.368;2022-12-05T00:41:08;44.40;;;16.65;;
49460;SDS011;35355;49.198;-0.368;2022-12-05T00:43:35;42.95;;;16.27;;
49460;SDS011;35355;49.198;-0.368;2022-12-05T00:46:02;40.92;;;16.08;;
49460;SDS011;35355;49.198;-0.368;2022-12-05T00:48:32;34.72;;;14.35;;
49460;SDS011;35355;49.198;-0.368;2022-12-05T00:53:37;39.28;;;15.55;;
49460;SDS011;35355;49.198;-0.368;2022-12-05T00:56:03;42.20;;;14.75;;
49460;SDS011;35355;49.198;-0.368;2022-12-05T00:58:31;33.38;;;15.65;;
49460;SDS011;35355;49.198;-0.368;2022-12-05T01:00:57;40.35;;;16.85;;
49460;SDS011;35355;49.198;-0.368;2022-12-05T01:03:28;35.95;;;14.63;;
49460;SDS011;35355;49.198;-0.368;2022-12-05T01:05:54;34.95;;;15.90;;
49460;SDS011;35355;49.198;-0.368;2022-12-05T01:08:19;41.55;;;15.55;;
49460;SDS011;35355;49.198;-0.368;2022-12-05T01:10:51;36.42;;;15.05;;
49460;SDS011;35355;49.198;-0.368;2022-12-05T01:13:20;40.45;;;16.33;;
49460;SDS011;35355;49.198;-0.368;2022-12-05T01:15:47;39.75;;;15.25;;
49460;SDS011;35355;49.198;-0.368;2022-12-05T01:18:12;43.13;;;15.57;;
49460;SDS011;35355;49.198;-0.368;2022-12-05T01:20:41;43.15;;;16.60;;
49460;SDS011;35355;49.198;-0.368;2022-12-05T01:23:07;37.80;;;14.45;;
49460;SDS011;35355;49.198;-0.368;2022-12-05T01:25:33;35.00;;;16.27;;
49460;SDS011;35355;49.198;-0.368;2022-12-05T01:27:59;46.50;;;17.40;;
49460;SDS011;35355;49.198;-0.368;2022-12-05T01:30:24;45.80;;;16.05;;
49460;SDS011;35355;49.198;-0.368;2022-12-05T01:32:50;36.90;;;15.43;;
49460;SDS011;35355;49.198;-0.368;2022-12-05T01:35:15;41.13;;;16.35;;
49460;SDS011;35355;49.198;-0.368;2022-12-05T01:37:41;39.78;;;15.25;;
49460;SDS011;35355;49.198;-0.368;2022-12-05T01:40:06;39.45;;;15.93;;
49460;SDS011;35355;49.198;-0.368;2022-12-05T01:42:32;40.50;;;16.95;;
49460;SDS011;35355;49.198;-0.368;2022-12-05T01:45:03;39.10;;;15.60;;
49460;SDS011;35355;49.198;-0.368;2022-12-05T01:47:40;41.50;;;16.20;;
49460;SDS011;35355;49.198;-0.368;2022-12-05T01:50:06;37.83;;;14.25;;
49460;SDS011;35355;49.198;-0.368;2022-12-05T01:52:32;40.78;;;16.23;;
49460;SDS011;35355;49.198;-0.368;2022-12-05T01:55:03;41.78;;;16.83;;
49460;SDS011;35355;49.198;-0.368;2022-12-05T01:57:32;42.67;;;15.35;;
49460;SDS011;35355;49.198;-0.368;2022-12-05T02:00:04;39.00;;;16.05;;
49460;SDS011;35355;49.198;-0.368;2022-12-05T02:02:34;43.38;;;15.88;;
49460;SDS011;35355;49.198;-0.368;2022-12-05T02:05:04;39.88;;;15.68;;
49460;SDS011;35355;49.198;-0.368;2022-12-05T02:07:33;45.33;;;17.25;;
49460;SDS011;35355;49.198;-0.368;2022-12-05T02:10:02;41.15;;;15.55;;
49460;SDS011;35355;49.198;-0.368;2022-12-05T02:12:28;41.47;;;16.20;;
49460;SDS011;35355;49.198;-0.368;2022-12-05T02:15:00;34.83;;;14.27;;
49460;SDS011;35355;49.198;-0.368;2022-12-05T02:23:35;38.78;;;16.70;;
49460;SDS011;35355;49.198;-0.368;2022-12-05T02:26:17;42.72;;;15.85;;
49460;SDS011;35355;49.198;-0.368;2022-12-05T02:31:42;37.35;;;15.30;;
49460;SDS011;35355;49.198;-0.368;2022-12-05T02:42:39;38.85;;;15.90;;
49460;SDS011;35355;49.198;-0.368;2022-12-05T02:45:14;45.65;;;16.85;;
49460;SDS011;35355;49.198;-0.368;2022-12-05T02:47:44;42.78;;;17.48;;
49460;SDS011;35355;49.198;-0.368;2022-12-05T02:50:16;37.83;;;16.33;;
49460;SDS011;35355;49.198;-0.368;2022-12-05T02:52:46;40.63;;;16.02;;
49460;SDS011;35355;49.198;-0.368;2022-12-05T02:55:13;38.70;;;16.52;;
49460;SDS011;35355;49.198;-0.368;2022-12-05T02:57:42;37.50;;;16.00;;
49460;SDS011;35355;49.198;-0.368;2022-12-05T03:00:13;37.70;;;15.93;;
49460;SDS011;35355;49.198;-0.368;2022-12-05T03:02:40;45.83;;;16.80;;
49460;SDS011;35355;49.198;-0.368;2022-12-05T03:07:35;47.33;;;18.90;;
49460;SDS011;35355;49.198;-0.368;2022-12-05T03:10:05;41.10;;;16.27;;
49460;SDS011;35355;49.198;-0.368;2022-12-05T03:12:40;36.60;;;16.73;;
49460;SDS011;35355;49.198;-0.368;2022-12-05T03:15:11;37.00;;;16.27;;
49460;SDS011;35355;49.198;-0.368;2022-12-05T03:17:44;43.33;;;17.52;;
49460;SDS011;35355;49.198;-0.368;2022-12-05T03:20:15;36.22;;;16.48;;
49460;SDS011;35355;49.198;-0.368;2022-12-05T03:22:58;40.13;;;15.73;;
49460;SDS011;35355;49.198;-0.368;2022-12-05T03:25:34;38.63;;;17.02;;
49460;SDS011;35355;49.198;-0.368;2022-12-05T03:28:19;40.35;;;17.02;;
49460;SDS011;35355;49.198;-0.368;2022-12-05T03:30:54;39.22;;;16.02;;
49460;SDS011;35355;49.198;-0.368;2022-12-05T03:33:26;43.95;;;18.20;;
49460;SDS011;35355;49.198;-0.368;2022-12-05T03:35:59;42.63;;;17.58;;
49460;SDS011;35355;49.198;-0.368;2022-12-05T03:38:43;42.75;;;16.42;;
49460;SDS011;35355;49.198;-0.368;2022-12-05T03:41:18;38.63;;;17.92;;
49460;SDS011;35355;49.198;-0.368;2022-12-05T03:43:55;42.13;;;16.35;;
49460;SDS011;35355;49.198;-0.368;2022-12-05T03:49:08;43.70;;;17.42;;
49460;SDS011;35355;49.198;-0.368;2022-12-05T03:51:38;47.03;;;18.15;;
49460;SDS011;35355;49.198;-0.368;2022-12-05T03:54:09;36.35;;;14.98;;
49460;SDS011;35355;49.198;-0.368;2022-12-05T03:56:42;38.40;;;16.03;;
49460;SDS011;35355;49.198;-0.368;2022-12-05T03:59:26;46.72;;;17.33;;
49460;SDS011;35355;49.198;-0.368;2022-12-05T04:01:57;43.67;;;16.50;;
49460;SDS011;35355;49.198;-0.368;2022-12-05T04:04:28;43.05;;;17.27;;
49460;SDS011;35355;49.198;-0.368;2022-12-05T04:06:59;39.42;;;15.90;;
49460;SDS011;35355;49.198;-0.368;2022-12-05T04:09:30;48.20;;;17.42;;
49460;SDS011;35355;49.198;-0.368;2022-12-05T04:12:02;41.90;;;17.27;;
49460;SDS011;35355;49.198;-0.368;2022-12-05T04:14:36;43.92;;;16.25;;
49460;SDS011;35355;49.198;-0.368;2022-12-05T04:17:04;38.95;;;16.08;;
49460;SDS011;35355;49.198;-0.368;2022-12-05T04:22:23;46.40;;;18.20;;
49460;SDS011;35355;49.198;-0.368;2022-12-05T04:24:49;42.70;;;17.60;;
49460;SDS011;35355;49.198;-0.368;2022-12-05T04:27:37;50.10;;;18.70;;
49460;SDS011;35355;49.198;-0.368;2022-12-05T04:30:13;42.38;;;16.95;;
49460;SDS011;35355;49.198;-0.368;2022-12-05T04:35:18;39.65;;;16.27;;
49460;SDS011;35355;49.198;-0.368;2022-12-05T04:37:48;43.17;;;17.30;;
49460;SDS011;35355;49.198;-0.368;2022-12-05T04:40:20;40.35;;;17.05;;
49460;SDS011;35355;49.198;-0.368;2022-12-05T04:42:52;47.88;;;16.83;;
49460;SDS011;35355;49.198;-0.368;2022-12-05T04:45:20;44.40;;;17.60;;
49460;SDS011;35355;49.198;-0.368;2022-12-05T04:47:50;41.17;;;15.35;;
49460;SDS011;35355;49.198;-0.368;2022-12-05T04:50:19;44.28;;;17.65;;
49460;SDS011;35355;49.198;-0.368;2022-12-05T04:52:47;39.65;;;16.38;;
49460;SDS011;35355;49.198;-0.368;2022-12-05T04:55:19;42.15;;;18.60;;
49460;SDS011;35355;49.198;-0.368;2022-12-05T05:00:30;35.40;;;16.35;;
49460;SDS011;35355;49.198;-0.368;2022-12-05T05:03:10;43.35;;;17.73;;
49460;SDS011;35355;49.198;-0.368;2022-12-05T05:05:47;40.90;;;16.65;;
49460;SDS011;35355;49.198;-0.368;2022-12-05T05:08:19;40.03;;;15.70;;
49460;SDS011;35355;49.198;-0.368;2022-12-05T05:10:53;36.67;;;15.23;;
49460;SDS011;35355;49.198;-0.368;2022-12-05T05:13:27;44.17;;;17.58;;
49460;SDS011;35355;49.198;-0.368;2022-12-05T05:15:53;41.55;;;16.92;;
49460;SDS011;35355;49.198;-0.368;2022-12-05T05:18:18;42.38;;;16.55;;
49460;SDS011;35355;49.198;-0.368;2022-12-05T05:20:44;42.15;;;16.17;;
49460;SDS011;35355;49.198;-0.368;2022-12-05T05:40:11;39.53;;;15.63;;
49460;SDS011;35355;49.198;-0.368;2022-12-05T05:42:44;47.67;;;17.77;;
49460;SDS011;35355;49.198;-0.368;2022-12-05T05:45:11;41.83;;;16.27;;
49460;SDS011;35355;49.198;-0.368;2022-12-05T05:47:38;38.38;;;16.05;;
49460;SDS011;35355;49.198;-0.368;2022-12-05T05:50:04;45.67;;;16.63;;
49460;SDS011;35355;49.198;-0.368;2022-12-05T05:52:36;45.53;;;18.25;;
49460;SDS011;35355;49.198;-0.368;2022-12-05T05:55:02;42.00;;;16.55;;
49460;SDS011;35355;49.198;-0.368;2022-12-05T05:57:29;46.65;;;16.90;;
49460;SDS011;35355;49.198;-0.368;2022-12-05T05:59:55;40.25;;;17.23;;
49460;SDS011;35355;49.198;-0.368;2022-12-05T06:02:20;43.83;;;16.67;;
49460;SDS011;35355;49.198;-0.368;2022-12-05T06:04:46;43.97;;;18.05;;
49460;SDS011;35355;49.198;-0.368;2022-12-05T06:07:11;38.17;;;15.98;;
49460;SDS011;35355;49.198;-0.368;2022-12-05T06:09:37;42.58;;;16.80;;
49460;SDS011;35355;49.198;-0.368;2022-12-05T06:12:02;41.50;;;15.98;;
49460;SDS011;35355;49.198;-0.368;2022-12-05T06:14:28;45.40;;;16.85;;
49460;SDS011;35355;49.198;-0.368;2022-12-05T06:16:53;46.28;;;17.08;;
49460;SDS011;35355;49.198;-0.368;2022-12-05T06:19:18;42.03;;;16.17;;
49460;SDS011;35355;49.198;-0.368;2022-12-05T06:21:44;39.75;;;15.05;;
49460;SDS011;35355;49.198;-0.368;2022-12-05T06:24:09;37.10;;;15.32;;
49460;SDS011;35355;49.198;-0.368;2022-12-05T06:26:35;41.78;;;17.52;;
49460;SDS011;35355;49.198;-0.368;2022-12-05T06:29:00;37.78;;;15.80;;
49460;SDS011;35355;49.198;-0.368;2022-12-05T06:31:25;44.80;;;17.95;;
49460;SDS011;35355;49.198;-0.368;2022-12-05T06:33:54;46.95;;;17.48;;
49460;SDS011;35355;49.198;-0.368;2022-12-05T06:36:20;39.90;;;16.88;;
49460;SDS011;35355;49.198;-0.368;2022-12-05T06:38:46;42.70;;;16.35;;
49460;SDS011;35355;49.198;-0.368;2022-12-05T06:41:13;48.95;;;16.15;;
49460;SDS011;35355;49.198;-0.368;2022-12-05T06:43:40;44.38;;;17.20;;
49460;SDS011;35355;49.198;-0.368;2022-12-05T06:46:06;42.03;;;16.55;;
49460;SDS011;35355;49.198;-0.368;2022-12-05T06:48:33;50.33;;;18.77;;
49460;SDS011;35355;49.198;-0.368;2022-12-05T06:50:59;51.72;;;18.67;;
49460;SDS011;35355;49.198;-0.368;2022-12-05T06:53:25;50.58;;;18.08;;
49460;SDS011;35355;49.198;-0.368;2022-12-05T06:55:57;49.35;;;19.15;;
49460;SDS011;35355;49.198;-0.368;2022-12-05T06:58:24;39.40;;;15.77;;
49460;SDS011;35355;49.198;-0.368;2022-12-05T07:00:49;42.38;;;17.42;;
49460;SDS011;35355;49.198;-0.368;2022-12-05T07:03:33;42.70;;;16.20;;
49460;SDS011;35355;49.198;-0.368;2022-12-05T07:05:59;48.20;;;16.63;;
49460;SDS011;35355;49.198;-0.368;2022-12-05T07:08:26;39.95;;;15.93;;
49460;SDS011;35355;49.198;-0.368;2022-12-05T07:10:52;45.13;;;17.90;;
49460;SDS011;35355;49.198;-0.368;2022-12-05T07:13:18;40.83;;;16.42;;
49460;SDS011;35355;49.198;-0.368;2022-12-05T07:15:47;47.22;;;18.00;;
49460;SDS011;35355;49.198;-0.368;2022-12-05T07:18:13;45.72;;;17.63;;
49460;SDS011;35355;49.198;-0.368;2022-12-05T07:20:40;44.97;;;18.23;;
49460;SDS011;35355;49.198;-0.368;2022-12-05T07:23:06;46.42;;;18.95;;
49460;SDS011;35355;49.198;-0.368;2022-12-05T07:25:32;51.33;;;17.77;;
49460;SDS011;35355;49.198;-0.368;2022-12-05T07:27:57;47.08;;;17.90;;
49460;SDS011;35355;49.198;-0.368;2022-12-05T07:30:22;48.28;;;18.38;;
49460;SDS011;35355;49.198;-0.368;2022-12-05T07:32:47;45.58;;;17.90;;
49460;SDS011;35355;49.198;-0.368;2022-12-05T07:35:13;48.13;;;17.90;;
49460;SDS011;35355;49.198;-0.368;2022-12-05T07:37:38;50.20;;;19.40;;
49460;SDS011;35355;49.198;-0.368;2022-12-05T07:40:04;58.08;;;18.83;;
49460;SDS011;35355;49.198;-0.368;2022-12-05T07:42:30;53.28;;;20.92;;
49460;SDS011;35355;49.198;-0.368;2022-12-05T07:44:55;50.95;;;19.58;;
49460;SDS011;35355;49.198;-0.368;2022-12-05T07:47:21;49.58;;;19.17;;
49460;SDS011;35355;49.198;-0.368;2022-12-05T07:49:46;47.30;;;18.33;;
49460;SDS011;35355;49.198;-0.368;2022-12-05T07:52:11;48.08;;;17.10;;
49460;SDS011;35355;49.198;-0.368;2022-12-05T07:54:37;44.95;;;17.13;;
49460;SDS011;35355;49.198;-0.368;2022-12-05T07:57:02;42.85;;;17.58;;
49460;SDS011;35355;49.198;-0.368;2022-12-05T07:59:27;45.38;;;19.25;;
49460;SDS011;35355;49.198;-0.368;2022-12-05T08:01:53;46.40;;;18.45;;
49460;SDS011;35355;49.198;-0.368;2022-12-05T08:04:18;51.50;;;19.58;;
49460;SDS011;35355;49.198;-0.368;2022-12-05T08:06:43;47.85;;;17.55;;
49460;SDS011;35355;49.198;-0.368;2022-12-05T08:09:09;50.22;;;18.52;;
49460;SDS011;35355;49.198;-0.368;2022-12-05T08:11:34;52.30;;;19.02;;
49460;SDS011;35355;49.198;-0.368;2022-12-05T08:14:00;45.45;;;17.42;;
49460;SDS011;35355;49.198;-0.368;2022-12-05T08:16:28;41.28;;;17.70;;
49460;SDS011;35355;49.198;-0.368;2022-12-05T08:18:55;50.28;;;18.02;;
49460;SDS011;35355;49.198;-0.368;2022-12-05T08:21:25;48.88;;;18.63;;
49460;SDS011;35355;49.198;-0.368;2022-12-05T08:23:51;43.45;;;17.52;;
49460;SDS011;35355;49.198;-0.368;2022-12-05T08:26:18;48.67;;;18.77;;
49460;SDS011;35355;49.198;-0.368;2022-12-05T08:28:45;42.80;;;16.65;;
49460;SDS011;35355;49.198;-0.368;2022-12-05T08:31:15;43.22;;;17.98;;
49460;SDS011;35355;49.198;-0.368;2022-12-05T08:33:41;50.85;;;19.52;;
49460;SDS011;35355;49.198;-0.368;2022-12-05T08:36:08;54.60;;;20.85;;
49460;SDS011;35355;49.198;-0.368;2022-12-05T08:38:36;49.00;;;18.20;;
49460;SDS011;35355;49.198;-0.368;2022-12-05T08:41:05;53.67;;;19.23;;
49460;SDS011;35355;49.198;-0.368;2022-12-05T08:43:32;49.10;;;18.30;;
49460;SDS011;35355;49.198;-0.368;2022-12-05T08:45:59;50.30;;;19.92;;
49460;SDS011;35355;49.198;-0.368;2022-12-05T08:48:25;58.53;;;22.25;;
49460;SDS011;35355;49.198;-0.368;2022-12-05T08:50:52;49.70;;;19.30;;
49460;SDS011;35355;49.198;-0.368;2022-12-05T08:53:17;51.40;;;20.30;;
49460;SDS011;35355;49.198;-0.368;2022-12-05T08:55:43;54.65;;;20.23;;
49460;SDS011;35355;49.198;-0.368;2022-12-05T08:58:09;55.30;;;19.63;;
49460;SDS011;35355;49.198;-0.368;2022-12-05T09:00:35;54.88;;;21.48;;
49460;SDS011;35355;49.198;-0.368;2022-12-05T09:03:01;50.83;;;21.17;;
49460;SDS011;35355;49.198;-0.368;2022-12-05T09:05:26;56.72;;;20.38;;
49460;SDS011;35355;49.198;-0.368;2022-12-05T09:07:51;42.10;;;18.05;;
49460;SDS011;35355;49.198;-0.368;2022-12-05T09:10:17;52.35;;;20.73;;
49460;SDS011;35355;49.198;-0.368;2022-12-05T09:12:42;54.22;;;20.85;;
49460;SDS011;35355;49.198;-0.368;2022-12-05T09:15:09;50.22;;;19.13;;
49460;SDS011;35355;49.198;-0.368;2022-12-05T09:17:35;46.83;;;19.65;;
49460;SDS011;35355;49.198;-0.368;2022-12-05T09:20:01;49.58;;;20.17;;
49460;SDS011;35355;49.198;-0.368;2022-12-05T09:22:27;48.80;;;20.38;;
49460;SDS011;35355;49.198;-0.368;2022-12-05T09:24:53;55.10;;;21.77;;
49460;SDS011;35355;49.198;-0.368;2022-12-05T09:27:21;53.08;;;21.42;;
49460;SDS011;35355;49.198;-0.368;2022-12-05T09:29:46;55.42;;;21.52;;
49460;SDS011;35355;49.198;-0.368;2022-12-05T09:32:12;50.40;;;20.08;;
49460;SDS011;35355;49.198;-0.368;2022-12-05T09:34:37;56.30;;;20.73;;
49460;SDS011;35355;49.198;-0.368;2022-12-05T09:37:06;48.45;;;19.85;;
49460;SDS011;35355;49.198;-0.368;2022-12-05T09:39:32;60.65;;;23.38;;
49460;SDS011;35355;49.198;-0.368;2022-12-05T09:47:35;52.55;;;20.20;;
49460;SDS011;35355;49.198;-0.368;2022-12-05T09:50:18;52.40;;;20.92;;
49460;SDS011;35355;49.198;-0.368;2022-12-05T09:52:58;53.50;;;22.10;;
49460;SDS011;35355;49.198;-0.368;2022-12-05T09:55:29;52.25;;;21.77;;
49460;SDS011;35355;49.198;-0.368;2022-12-05T10:00:28;51.80;;;21.15;;
49460;SDS011;35355;49.198;-0.368;2022-12-05T10:03:11;61.63;;;23.10;;
49460;SDS011;35355;49.198;-0.368;2022-12-05T10:05:44;54.20;;;22.30;;
49460;SDS011;35355;49.198;-0.368;2022-12-05T10:08:17;56.58;;;22.83;;
49460;SDS011;35355;49.198;-0.368;2022-12-05T10:10:58;50.78;;;21.95;;
49460;SDS011;35355;49.198;-0.368;2022-12-05T10:13:39;44.20;;;19.65;;
49460;SDS011;35355;49.198;-0.368;2022-12-05T10:16:36;52.50;;;21.73;;
49460;SDS011;35355;49.198;-0.368;2022-12-05T10:19:26;57.17;;;21.95;;
49460;SDS011;35355;49.198;-0.368;2022-12-05T10:22:10;51.10;;;23.15;;
49460;SDS011;35355;49.198;-0.368;2022-12-05T10:24:42;53.63;;;21.70;;
49460;SDS011;35355;49.198;-0.368;2022-12-05T10:27:13;54.88;;;21.75;;
49460;SDS011;35355;49.198;-0.368;2022-12-05T10:29:49;56.55;;;21.30;;
49460;SDS011;35355;49.198;-0.368;2022-12-05T10:35:05;53.00;;;20.42;;
49460;SDS011;35355;49.198;-0.368;2022-12-05T10:37:40;59.72;;;21.58;;
49460;SDS011;35355;49.198;-0.368;2022-12-05T10:40:11;52.60;;;22.33;;
49460;SDS011;35355;49.198;-0.368;2022-12-05T10:42:36;51.40;;;20.92;;
49460;SDS011;35355;49.198;-0.368;2022-12-05T10:45:04;53.00;;;21.27;;
49460;SDS011;35355;49.198;-0.368;2022-12-05T10:47:32;55.33;;;20.85;;
49460;SDS011;35355;49.198;-0.368;2022-12-05T10:50:02;52.08;;;22.65;;
49460;SDS011;35355;49.198;-0.368;2022-12-05T10:52:45;59.83;;;23.02;;
49460;SDS011;35355;49.198;-0.368;2022-12-05T10:55:13;49.03;;;21.77;;
49460;SDS011;35355;49.198;-0.368;2022-12-05T10:57:41;56.10;;;21.40;;
49460;SDS011;35355;49.198;-0.368;2022-12-05T11:00:13;56.42;;;23.50;;
49460;SDS011;35355;49.198;-0.368;2022-12-05T11:02:40;55.08;;;21.67;;
49460;SDS011;35355;49.198;-0.368;2022-12-05T11:05:06;54.33;;;20.67;;
49460;SDS011;35355;49.198;-0.368;2022-12-05T11:10:01;61.50;;;24.23;;
49460;SDS011;35355;49.198;-0.368;2022-12-05T11:15:02;56.97;;;23.15;;
49460;SDS011;35355;49.198;-0.368;2022-12-05T11:17:30;50.92;;;20.90;;
49460;SDS011;35355;49.198;-0.368;2022-12-05T11:20:00;53.35;;;22.92;;
49460;SDS011;35355;49.198;-0.368;2022-12-05T11:22:33;53.65;;;22.27;;
49460;SDS011;35355;49.198;-0.368;2022-12-05T11:24:59;48.45;;;21.08;;
49460;SDS011;35355;49.198;-0.368;2022-12-05T11:27:29;59.05;;;22.73;;
49460;SDS011;35355;49.198;-0.368;2022-12-05T11:30:00;58.90;;;23.20;;
49460;SDS011;35355;49.198;-0.368;2022-12-05T11:32:30;52.88;;;21.75;;
49460;SDS011;35355;49.198;-0.368;2022-12-05T11:35:00;54.80;;;22.40;;
49460;SDS011;35355;49.198;-0.368;2022-12-05T11:37:46;49.22;;;21.67;;
49460;SDS011;35355;49.198;-0.368;2022-12-05T11:40:14;58.40;;;22.00;;
49460;SDS011;35355;49.198;-0.368;2022-12-05T11:42:54;55.05;;;21.83;;
49460;SDS011;35355;49.198;-0.368;2022-12-05T11:48:13;50.10;;;21.75;;
49460;SDS011;35355;49.198;-0.368;2022-12-05T11:51:10;48.22;;;20.83;;
49460;SDS011;35355;49.198;-0.368;2022-12-05T11:56:51;51.88;;;21.55;;
49460;SDS011;35355;49.198;-0.368;2022-12-05T12:01:53;57.72;;;22.00;;
49460;SDS011;35355;49.198;-0.368;2022-12-05T12:04:23;53.25;;;21.77;;
49460;SDS011;35355;49.198;-0.368;2022-12-05T12:07:05;55.78;;;22.67;;
49460;SDS011;35355;49.198;-0.368;2022-12-05T12:12:25;50.67;;;21.38;;
49460;SDS011;35355;49.198;-0.368;2022-12-05T12:23:44;54.55;;;21.27;;
49460;SDS011;35355;49.198;-0.368;2022-12-05T12:29:02;52.45;;;23.63;;
49460;SDS011;35355;49.198;-0.368;2022-12-05T12:37:33;58.88;;;25.77;;
49460;SDS011;35355;49.198;-0.368;2022-12-05T12:42:50;59.38;;;23.77;;
49460;SDS011;35355;49.198;-0.368;2022-12-05T12:48:52;55.70;;;24.23;;
49460;SDS011;35355;49.198;-0.368;2022-12-05T12:51:30;57.33;;;24.40;;
49460;SDS011;35355;49.198;-0.368;2022-12-05T12:56:45;60.40;;;24.20;;
49460;SDS011;35355;49.198;-0.368;2022-12-05T13:04:53;59.60;;;25.15;;
49460;SDS011;35355;49.198;-0.368;2022-12-05T13:13:01;58.88;;;23.48;;
49460;SDS011;35355;49.198;-0.368;2022-12-05T13:16:12;56.97;;;23.13;;
49460;SDS011;35355;49.198;-0.368;2022-12-05T13:18:20;60.92;;;25.20;;
49460;SDS011;35355;49.198;-0.368;2022-12-05T13:20:48;61.47;;;25.58;;
49460;SDS011;35355;49.198;-0.368;2022-12-05T13:23:17;62.70;;;25.73;;
49460;SDS011;35355;49.198;-0.368;2022-12-05T13:25:46;57.22;;;23.42;;
49460;SDS011;35355;49.198;-0.368;2022-12-05T13:31:33;58.15;;;23.88;;
49460;SDS011;35355;49.198;-0.368;2022-12-05T13:36:57;57.03;;;23.67;;
49460;SDS011;35355;49.198;-0.368;2022-12-05T13:39:49;55.13;;;23.77;;
49460;SDS011;35355;49.198;-0.368;2022-12-05T13:42:36;58.47;;;25.40;;
49460;SDS011;35355;49.198;-0.368;2022-12-05T13:50:32;59.55;;;24.15;;
49460;SDS011;35355;49.198;-0.368;2022-12-05T14:17:19;63.38;;;23.30;;
49460;SDS011;35355;49.198;-0.368;2022-12-05T14:19:56;71.68;;;24.67;;
49460;SDS011;35355;49.198;-0.368;2022-12-05T14:27:51;50.80;;;20.95;;
49460;SDS011;35355;49.198;-0.368;2022-12-05T14:30:24;56.35;;;21.73;;
49460;SDS011;35355;49.198;-0.368;2022-12-05T14:32:59;59.80;;;22.70;;
49460;SDS011;35355;49.198;-0.368;2022-12-05T14:35:30;59.55;;;23.70;;
49460;SDS011;35355;49.198;-0.368;2022-12-05T14:38:05;54.42;;;21.63;;
49460;SDS011;35355;49.198;-0.368;2022-12-05T14:40:36;59.40;;;22.73;;
49460;SDS011;35355;49.198;-0.368;2022-12-05T14:43:41;59.47;;;23.17;;
49460;SDS011;35355;49.198;-0.368;2022-12-05T14:46:02;62.13;;;23.87;;
49460;SDS011;35355;49.198;-0.368;2022-12-05T14:48:36;66.07;;;24.23;;
49460;SDS011;35355;49.198;-0.368;2022-12-05T14:54:03;60.53;;;23.83;;
49460;SDS011;35355;49.198;-0.368;2022-12-05T14:56:31;62.05;;;23.33;;
49460;SDS011;35355;49.198;-0.368;2022-12-05T14:59:05;56.60;;;21.70;;
49460;SDS011;35355;49.198;-0.368;2022-12-05T15:01:41;60.17;;;22.42;;
49460;SDS011;35355;49.198;-0.368;2022-12-05T15:05:13;63.00;;;20.03;;
49460;SDS011;35355;49.198;-0.368;2022-12-05T15:07:11;54.53;;;20.02;;
49460;SDS011;35355;49.198;-0.368;2022-12-05T15:23:46;47.17;;;18.83;;
49460;SDS011;35355;49.198;-0.368;2022-12-05T15:29:41;45.40;;;17.00;;
49460;SDS011;35355;49.198;-0.368;2022-12-05T15:42:30;43.53;;;16.83;;
49460;SDS011;35355;49.198;-0.368;2022-12-05T15:47:38;42.05;;;15.98;;
49460;SDS011;35355;49.198;-0.368;2022-12-05T15:50:05;42.50;;;18.40;;
49460;SDS011;35355;49.198;-0.368;2022-12-05T15:52:46;37.35;;;17.02;;
49460;SDS011;35355;49.198;-0.368;2022-12-05T15:55:20;36.60;;;17.73;;
49460;SDS011;35355;49.198;-0.368;2022-12-05T15:58:04;35.38;;;16.25;;
49460;SDS011;35355;49.198;-0.368;2022-12-05T16:00:41;35.15;;;17.13;;
49460;SDS011;35355;49.198;-0.368;2022-12-05T16:05:48;40.60;;;16.98;;
49460;SDS011;35355;49.198;-0.368;2022-12-05T16:08:19;40.60;;;18.70;;
49460;SDS011;35355;49.198;-0.368;2022-12-05T16:10:48;40.83;;;20.33;;
49460;SDS011;35355;49.198;-0.368;2022-12-05T16:13:14;65.40;;;30.80;;
49460;SDS011;35355;49.198;-0.368;2022-12-05T16:15:41;40.65;;;19.35;;
49460;SDS011;35355;49.198;-0.368;2022-12-05T16:18:18;42.63;;;19.13;;
49460;SDS011;35355;49.198;-0.368;2022-12-05T16:20:48;43.10;;;18.45;;
49460;SDS011;35355;49.198;-0.368;2022-12-05T16:23:22;47.83;;;18.30;;
49460;SDS011;35355;49.198;-0.368;2022-12-05T16:25:50;44.97;;;18.65;;
49460;SDS011;35355;49.198;-0.368;2022-12-05T16:28:17;54.20;;;22.45;;
49460;SDS011;35355;49.198;-0.368;2022-12-05T16:30:53;51.35;;;21.63;;
49460;SDS011;35355;49.198;-0.368;2022-12-05T16:33:24;51.65;;;23.55;;
49460;SDS011;35355;49.198;-0.368;2022-12-05T16:35:51;56.50;;;22.80;;
49460;SDS011;35355;49.198;-0.368;2022-12-05T16:43:17;63.28;;;24.83;;
49460;SDS011;35355;49.198;-0.368;2022-12-05T16:45:48;57.65;;;23.73;;
49460;SDS011;35355;49.198;-0.368;2022-12-05T16:48:16;49.83;;;20.98;;
49460;SDS011;35355;49.198;-0.368;2022-12-05T16:50:46;33.80;;;14.50;;
49460;SDS011;35355;49.198;-0.368;2022-12-05T16:53:19;28.10;;;13.63;;
49460;SDS011;35355;49.198;-0.368;2022-12-05T16:58:23;28.02;;;10.75;;
49460;SDS011;35355;49.198;-0.368;2022-12-05T17:00:57;19.50;;;8.15;;
49460;SDS011;35355;49.198;-0.368;2022-12-05T17:03:24;15.10;;;8.18;;
49460;SDS011;35355;49.198;-0.368;2022-12-05T17:05:51;18.70;;;8.90;;
49460;SDS011;35355;49.198;-0.368;2022-12-05T17:08:17;18.58;;;8.45;;
49460;SDS011;35355;49.198;-0.368;2022-12-05T17:10:42;16.08;;;7.13;;
49460;SDS011;35355;49.198;-0.368;2022-12-05T17:13:08;15.10;;;7.18;;
49460;SDS011;35355;49.198;-0.368;2022-12-05T17:15:38;16.17;;;7.82;;
49460;SDS011;35355;49.198;-0.368;2022-12-05T17:18:06;16.30;;;8.02;;
49460;SDS011;35355;49.198;-0.368;2022-12-05T17:20:37;16.13;;;8.07;;
49460;SDS011;35355;49.198;-0.368;2022-12-05T17:23:05;17.33;;;7.80;;
49460;SDS011;35355;49.198;-0.368;2022-12-05T17:25:32;17.25;;;8.25;;
49460;SDS011;35355;49.198;-0.368;2022-12-05T17:28:01;18.50;;;7.78;;
49460;SDS011;35355;49.198;-0.368;2022-12-05T17:30:26;17.35;;;8.50;;
49460;SDS011;35355;49.198;-0.368;2022-12-05T17:32:52;14.07;;;7.40;;
49460;SDS011;35355;49.198;-0.368;2022-12-05T17:35:18;16.95;;;7.45;;
49460;SDS011;35355;49.198;-0.368;2022-12-05T17:37:44;16.45;;;8.05;;
49460;SDS011;35355;49.198;-0.368;2022-12-05T17:40:10;20.02;;;8.38;;
49460;SDS011;35355;49.198;-0.368;2022-12-05T17:42:37;18.80;;;7.47;;
49460;SDS011;35355;49.198;-0.368;2022-12-05T17:45:03;19.10;;;8.02;;